createdAt,value
2023-01-29T00:03:10.160Z,15.062
2023-01-29T00:07:15.355Z,15.062
2023-01-29T00:10:57.235Z,15.062
2023-01-29T00:14:40.332Z,15.0
2023-01-29T00:18:23.452Z,15.0
2023-01-29T00:22:06.058Z,15.0
2023-01-29T00:25:48.433Z,15.0
2023-01-29T00:29:30.756Z,15.0
2023-01-29T00:33:14.985Z,14.937
2023-01-29T00:36:56.860Z,15.0
2023-01-29T00:40:39.378Z,15.125
2023-01-29T00:44:21.612Z,15.312
2023-01-29T00:48:04.436Z,15.437
2023-01-29T00:51:46.991Z,15.437
2023-01-29T00:55:29.168Z,15.437
2023-01-29T00:59:11.685Z,15.375
2023-01-29T01:03:09.530Z,15.312
2023-01-29T01:06:51.741Z,15.25
2023-01-29T01:10:34.876Z,15.25
2023-01-29T01:14:17.390Z,15.187
2023-01-29T01:18:00.228Z,15.125
2023-01-29T01:21:43.736Z,15.0
2023-01-29T01:25:25.954Z,14.937
2023-01-29T01:29:08.750Z,14.875
2023-01-29T01:32:52.013Z,14.937
2023-01-29T01:36:34.151Z,15.062
2023-01-29T01:40:16.539Z,15.187
2023-01-29T01:43:58.975Z,15.25
2023-01-29T01:47:41.883Z,15.25
2023-01-29T01:51:23.615Z,15.187
2023-01-29T01:55:05.634Z,15.125
2023-01-29T01:58:48.209Z,15.125
2023-01-29T02:03:13.014Z,15.0
2023-01-29T02:06:55.318Z,15.0
2023-01-29T02:10:38.037Z,14.875
2023-01-29T02:14:20.288Z,14.937
2023-01-29T02:18:02.993Z,15.125
2023-01-29T02:21:45.467Z,15.312
2023-01-29T02:25:31.524Z,15.312
2023-01-29T02:29:13.815Z,15.312
2023-01-29T02:32:57.207Z,15.25
2023-01-29T02:36:39.388Z,15.25
2023-01-29T02:40:21.670Z,15.187
2023-01-29T02:44:04.238Z,15.125
2023-01-29T02:47:47.272Z,15.062
2023-01-29T02:51:29.649Z,15.0
2023-01-29T02:55:12.383Z,15.0
2023-01-29T02:58:54.638Z,15.0
2023-01-29T03:03:08.670Z,14.937
2023-01-29T03:06:50.782Z,14.937
2023-01-29T03:10:33.415Z,15.125
2023-01-29T03:14:16.184Z,15.312
2023-01-29T03:17:59.118Z,15.375
2023-01-29T03:21:41.991Z,15.375
2023-01-29T03:25:24.490Z,15.375
2023-01-29T03:29:06.779Z,15.375
2023-01-29T03:32:50.696Z,15.312
2023-01-29T03:36:33.116Z,15.25
2023-01-29T03:40:15.862Z,15.187
2023-01-29T03:43:58.081Z,15.125
2023-01-29T03:47:40.568Z,15.062
2023-01-29T03:51:22.655Z,15.062
2023-01-29T03:55:05.050Z,15.0
2023-01-29T03:58:47.172Z,14.937
2023-01-29T04:03:09.382Z,15.062
2023-01-29T04:06:51.720Z,15.25
2023-01-29T04:10:33.691Z,15.375
2023-01-29T04:14:15.904Z,15.375
2023-01-29T04:17:58.387Z,15.375
2023-01-29T04:21:41.235Z,15.375
2023-01-29T04:25:23.262Z,15.312
2023-01-29T04:29:05.183Z,15.25
2023-01-29T04:32:49.034Z,15.187
2023-01-29T04:36:31.315Z,15.125
2023-01-29T04:40:13.323Z,15.062
2023-01-29T04:43:55.883Z,15.0
2023-01-29T04:47:38.072Z,15.0
2023-01-29T04:51:19.793Z,14.937
2023-01-29T04:55:01.954Z,14.937
2023-01-29T04:58:44.134Z,15.062
2023-01-29T05:03:09.767Z,15.25
2023-01-29T05:08:37.666Z,15.312
2023-01-29T05:12:20.468Z,15.312
2023-01-29T05:16:03.067Z,15.312
2023-01-29T05:19:45.264Z,15.25
2023-01-29T05:23:28.113Z,15.187
2023-01-29T05:27:10.764Z,15.125
2023-01-29T05:30:53.476Z,15.062
2023-01-29T05:34:36.516Z,15.0
2023-01-29T05:38:19.217Z,15.0
2023-01-29T05:42:01.797Z,14.937
2023-01-29T05:45:44.247Z,15.0
2023-01-29T05:49:26.950Z,15.125
2023-01-29T05:53:10.214Z,15.187
2023-01-29T05:56:52.222Z,15.25
2023-01-29T06:03:09.664Z,15.25
2023-01-29T06:06:52.058Z,15.187
2023-01-29T06:10:34.451Z,15.125
2023-01-29T06:14:16.634Z,15.062
2023-01-29T06:18:00.122Z,15.0
2023-01-29T06:21:46.405Z,14.937
2023-01-29T06:25:28.536Z,14.937
2023-01-29T06:29:10.742Z,15.0
2023-01-29T06:33:26.092Z,15.187
2023-01-29T06:37:08.237Z,15.312
2023-01-29T06:40:50.758Z,15.312
2023-01-29T06:44:33.227Z,15.312
2023-01-29T06:48:16.113Z,15.25
2023-01-29T06:51:59.051Z,15.187
2023-01-29T06:55:41.342Z,15.125
2023-01-29T06:59:23.447Z,15.062
2023-01-29T07:03:29.003Z,15.062
2023-01-29T07:07:11.404Z,15.0
2023-01-29T07:10:54.584Z,14.875
2023-01-29T07:14:36.904Z,14.937
2023-01-29T07:18:22.305Z,15.125
2023-01-29T07:22:04.660Z,15.25
2023-01-29T07:25:47.130Z,15.312
2023-01-29T07:29:30.963Z,15.312
2023-01-29T07:33:14.932Z,15.25
2023-01-29T07:36:57.029Z,15.25
2023-01-29T07:40:39.494Z,15.187
2023-01-29T07:44:21.558Z,15.125
2023-01-29T07:48:06.131Z,15.062
2023-01-29T07:51:48.777Z,15.0
2023-01-29T07:55:30.933Z,14.937
2023-01-29T07:59:14.672Z,14.937
2023-01-29T08:03:09.612Z,15.125
2023-01-29T08:06:52.005Z,15.312
2023-01-29T08:10:51.964Z,15.312
2023-01-29T08:14:33.888Z,15.312
2023-01-29T08:26:56.516Z,15.187
2023-01-29T08:30:39.564Z,15.187
2023-01-29T08:34:28.834Z,15.125
2023-01-29T08:38:11.059Z,15.0
2023-01-29T08:41:53.938Z,14.937
2023-01-29T08:45:38.539Z,14.875
2023-01-29T08:49:22.242Z,15.062
2023-01-29T08:53:05.012Z,15.187
2023-01-29T08:56:47.897Z,15.25
2023-01-29T09:03:09.660Z,15.5
2023-01-29T09:06:52.058Z,15.562
2023-01-29T09:10:34.666Z,15.5
2023-01-29T09:14:16.497Z,15.375
2023-01-29T09:17:59.195Z,15.25
2023-01-29T09:21:41.704Z,15.187
2023-01-29T09:25:23.623Z,15.187
2023-01-29T09:29:06.265Z,15.375
2023-01-29T09:33:22.206Z,15.812
2023-01-29T09:37:05.212Z,16.312
2023-01-29T09:40:47.075Z,16.625
2023-01-29T09:44:30.003Z,16.937
2023-01-29T09:48:13.388Z,17.375
2023-01-29T09:51:56.128Z,17.625
2023-01-29T09:55:39.005Z,17.812
2023-01-29T09:59:22.853Z,18.0
2023-01-29T10:03:09.518Z,18.187
2023-01-29T10:06:52.789Z,18.375
2023-01-29T10:10:35.825Z,18.562
2023-01-29T10:14:19.044Z,18.687
2023-01-29T10:18:02.681Z,18.812
2023-01-29T10:21:45.445Z,19.0
2023-01-29T10:25:28.345Z,19.062
2023-01-29T10:29:12.916Z,19.062
2023-01-29T10:32:57.405Z,19.0
2023-01-29T10:36:57.474Z,18.875
2023-01-29T10:40:40.330Z,19.125
2023-01-29T10:44:22.867Z,19.25
2023-01-29T10:48:08.978Z,19.125
2023-01-29T10:51:51.978Z,18.875
2023-01-29T10:55:37.382Z,18.875
2023-01-29T10:59:20.316Z,19.0
2023-01-29T11:03:21.695Z,19.062
2023-01-29T11:07:10.266Z,18.875
2023-01-29T11:10:53.639Z,18.875
2023-01-29T11:14:36.615Z,19.125
2023-01-29T11:18:20.828Z,19.0
2023-01-29T11:22:04.031Z,18.875
2023-01-29T11:25:46.982Z,18.937
2023-01-29T11:29:30.247Z,19.0
2023-01-29T11:33:15.457Z,19.062
2023-01-29T11:37:00.667Z,19.0
2023-01-29T11:40:44.262Z,18.875
2023-01-29T11:44:27.242Z,18.875
2023-01-29T11:48:10.413Z,18.937
2023-01-29T11:52:12.588Z,19.125
2023-01-29T11:56:11.804Z,19.062
2023-01-29T11:59:54.856Z,19.0
2023-01-29T12:03:09.289Z,19.125
2023-01-29T12:06:55.175Z,19.125
2023-01-29T12:10:41.508Z,18.875
2023-01-29T12:14:24.418Z,18.75
2023-01-29T12:18:08.264Z,18.875
2023-01-29T12:21:51.539Z,19.062
2023-01-29T12:25:35.791Z,19.312
2023-01-29T12:29:18.942Z,19.25
2023-01-29T12:33:02.795Z,19.125
2023-01-29T12:36:48.733Z,19.0
2023-01-29T12:40:31.856Z,18.812
2023-01-29T12:44:14.712Z,18.812
2023-01-29T12:48:00.491Z,18.937
2023-01-29T12:51:43.770Z,19.125
2023-01-29T12:55:26.259Z,19.25
2023-01-29T12:59:09.022Z,19.062
2023-01-29T13:03:09.387Z,18.812
2023-01-29T13:06:52.314Z,18.812
2023-01-29T13:10:36.699Z,18.937
2023-01-29T13:14:20.903Z,19.187
2023-01-29T13:18:04.386Z,19.312
2023-01-29T13:21:47.881Z,19.187
2023-01-29T13:25:46.939Z,19.062
2023-01-29T13:29:30.093Z,18.875
2023-01-29T13:33:15.774Z,18.937
2023-01-29T13:36:59.273Z,19.0
2023-01-29T13:40:42.435Z,19.062
2023-01-29T13:44:25.459Z,19.062
2023-01-29T13:48:09.412Z,19.0
2023-01-29T13:51:54.372Z,18.625
2023-01-29T13:55:37.807Z,18.625
2023-01-29T13:59:20.945Z,18.687
2023-01-29T14:03:10.046Z,18.75
2023-01-29T14:07:02.430Z,18.812
2023-01-29T14:10:46.739Z,19.0
2023-01-29T14:14:29.531Z,19.125
2023-01-29T14:18:17.292Z,19.125
2023-01-29T14:22:15.951Z,19.062
2023-01-29T14:25:59.687Z,18.937
2023-01-29T14:29:56.219Z,18.75
2023-01-29T14:33:41.782Z,18.5
2023-01-29T14:37:26.161Z,18.375
2023-01-29T14:41:08.921Z,18.187
2023-01-29T14:44:51.480Z,17.937
2023-01-29T14:48:34.839Z,17.75
2023-01-29T14:52:17.910Z,17.562
2023-01-29T14:56:01.621Z,17.437
2023-01-29T14:59:46.400Z,17.312
2023-01-29T15:03:17.241Z,17.187
2023-01-29T15:07:04.049Z,17.0
2023-01-29T15:11:11.619Z,16.875
2023-01-29T15:14:53.963Z,16.75
2023-01-29T15:18:37.709Z,16.687
2023-01-29T15:22:21.441Z,16.687
2023-01-29T15:26:04.624Z,16.812
2023-01-29T15:29:53.764Z,17.062
2023-01-29T15:33:40.241Z,17.312
2023-01-29T15:37:36.883Z,17.312
2023-01-29T15:41:22.204Z,17.375
2023-01-29T15:45:04.878Z,17.312
2023-01-29T15:48:48.493Z,17.25
2023-01-29T15:52:31.531Z,17.187
2023-01-29T15:56:14.558Z,17.062
2023-01-29T15:59:59.243Z,16.937
2023-01-29T16:03:09.268Z,16.875
2023-01-29T16:06:55.475Z,16.937
2023-01-29T16:10:38.432Z,17.125
2023-01-29T16:14:23.414Z,17.312
2023-01-29T16:18:07.793Z,17.312
2023-01-29T16:21:57.352Z,17.312
2023-01-29T16:25:40.675Z,17.187
2023-01-29T16:29:24.328Z,17.125
2023-01-29T16:33:09.281Z,16.937
2023-01-29T16:36:54.535Z,16.875
2023-01-29T16:40:37.565Z,17.0
2023-01-29T16:44:31.086Z,17.25
2023-01-29T16:48:15.241Z,17.375
2023-01-29T16:52:00.558Z,17.375
2023-01-29T16:55:43.647Z,17.312
2023-01-29T16:59:26.359Z,17.25
2023-01-29T17:03:09.098Z,17.125
2023-01-29T17:08:38.413Z,16.937
2023-01-29T17:12:20.835Z,16.875
2023-01-29T17:16:04.942Z,17.0
2023-01-29T17:19:47.615Z,17.125
2023-01-29T17:23:29.572Z,17.25
2023-01-29T17:27:13.209Z,17.25
2023-01-29T17:31:05.932Z,17.25
2023-01-29T17:34:51.854Z,17.187
2023-01-29T17:38:52.997Z,17.062
2023-01-29T17:42:38.556Z,16.937
2023-01-29T17:46:21.393Z,16.812
2023-01-29T17:50:03.872Z,16.937
2023-01-29T17:53:53.807Z,17.187
2023-01-29T17:57:36.374Z,17.312
2023-01-29T18:03:19.203Z,17.25
2023-01-29T18:07:02.652Z,17.187
2023-01-29T18:10:45.399Z,17.062
2023-01-29T18:14:40.400Z,17.062
2023-01-29T18:18:27.467Z,17.0
2023-01-29T18:22:10.024Z,16.937
2023-01-29T18:25:54.102Z,16.937
2023-01-29T18:29:37.166Z,17.0
2023-01-29T18:33:20.576Z,17.125
2023-01-29T18:37:03.629Z,17.25
2023-01-29T18:40:49.016Z,17.25
2023-01-29T18:44:31.469Z,17.187
2023-01-29T18:48:15.454Z,17.062
2023-01-29T18:51:58.141Z,16.937
2023-01-29T18:55:41.499Z,16.937
2023-01-29T19:03:08.987Z,17.125
2023-01-29T19:06:51.995Z,17.25
2023-01-29T19:10:35.128Z,17.187
2023-01-29T19:14:17.281Z,17.187
2023-01-29T19:18:01.324Z,17.125
2023-01-29T19:21:46.962Z,17.062
2023-01-29T19:25:29.607Z,17.0
2023-01-29T19:29:12.459Z,16.937
2023-01-29T19:32:55.656Z,16.937
2023-01-29T19:36:37.862Z,17.125
2023-01-29T19:40:20.654Z,17.25
2023-01-29T19:44:03.019Z,17.25
2023-01-29T19:48:05.059Z,17.25
2023-01-29T19:51:49.983Z,17.125
2023-01-29T19:55:47.871Z,17.0
2023-01-29T19:59:30.310Z,16.937
2023-01-29T20:03:09.264Z,16.937
2023-01-29T20:06:52.252Z,17.062
2023-01-29T20:10:36.814Z,17.25
2023-01-29T20:14:19.242Z,17.25
2023-01-29T20:18:02.636Z,17.25
2023-01-29T20:22:12.680Z,17.187
2023-01-29T20:26:14.290Z,17.125
2023-01-29T20:29:56.838Z,17.0
2023-01-29T20:33:40.085Z,16.875
2023-01-29T20:37:22.771Z,16.937
2023-01-29T20:41:06.105Z,17.125
2023-01-29T20:44:48.488Z,17.25
2023-01-29T20:48:31.877Z,17.25
2023-01-29T20:52:14.253Z,17.125
2023-01-29T20:55:59.719Z,17.062
2023-01-29T21:00:00.223Z,16.937
2023-01-29T21:03:09.877Z,16.875
2023-01-29T21:06:52.127Z,16.937
2023-01-29T21:10:34.698Z,17.062
2023-01-29T21:14:20.000Z,17.312
2023-01-29T21:18:05.767Z,17.312
2023-01-29T21:21:49.048Z,17.312
2023-01-29T21:25:34.975Z,17.25
2023-01-29T21:29:18.420Z,17.187
2023-01-29T21:33:02.074Z,17.062
2023-01-29T21:36:45.353Z,17.0
2023-01-29T21:40:28.075Z,16.937
2023-01-29T21:44:11.095Z,16.937
2023-01-29T21:47:54.289Z,17.062
2023-01-29T21:51:39.594Z,17.25
2023-01-29T21:55:22.240Z,17.25
2023-01-29T21:59:04.634Z,17.187
2023-01-29T22:03:32.865Z,17.062
2023-01-29T22:07:18.554Z,17.0
2023-01-29T22:11:03.857Z,16.875
2023-01-29T22:14:46.924Z,16.75
2023-01-29T22:18:29.806Z,16.687
2023-01-29T22:22:13.970Z,16.562
2023-01-29T22:25:56.489Z,16.5
2023-01-29T22:29:39.992Z,16.375
2023-01-29T22:33:23.633Z,16.312
2023-01-29T22:37:06.017Z,16.25
2023-01-29T22:40:48.676Z,16.125
2023-01-29T22:44:31.035Z,16.125
2023-01-29T22:48:14.424Z,16.0
2023-01-29T22:51:56.602Z,16.0
2023-01-29T22:55:39.159Z,15.937
2023-01-29T22:59:21.575Z,15.875
2023-01-29T23:03:10.431Z,15.875
2023-01-29T23:06:52.791Z,15.875
2023-01-29T23:10:35.578Z,15.875
2023-01-29T23:14:17.836Z,15.812
2023-01-29T23:18:03.290Z,15.75
2023-01-29T23:21:45.277Z,15.75
2023-01-29T23:25:27.396Z,15.75
2023-01-29T23:29:09.791Z,15.687
2023-01-29T23:32:53.953Z,15.687
2023-01-29T23:36:36.075Z,15.625
2023-01-29T23:40:18.575Z,15.625
2023-01-29T23:44:01.115Z,15.562
2023-01-29T23:47:43.220Z,15.562
2023-01-29T23:51:25.820Z,15.562
2023-01-29T23:55:08.066Z,15.5
2023-01-29T23:58:50.341Z,15.5
